EJA737 KAMA-KDFW
Flight info
| Callsign | EJA737 |
|---|---|
| Flight time | 0h 44m |
| Altitude | 29000 |
| Route | MDANO VKTRY2 |
| Aircraft | CL30/M-SDFGIRW/S |
Departure
| Time | 2026-05-04 02:36 |
|---|---|
| Airport | Rick Husband Amarillo International Airport (KAMA) |
Arrival
| Time | 2026-05-04 03:20 |
|---|---|
| Airport | Dallas Fort Worth International Airport (KDFW) |
| Time | Latitude | Longitude | Altitude | Speed | Heading |
|---|---|---|---|---|---|
| 2026-05-04 02:22 | 35.21763 | -101.70913 | 3613 ft | 0 kts | 225° |
| 2026-05-04 02:31 | 35.21754 | -101.70943 | 3612 ft | 7 kts | 257° |
| 2026-05-04 02:31 | 35.21767 | -101.71022 | 3612 ft | 12 kts | 323° |
| 2026-05-04 02:32 | 35.21847 | -101.71062 | 3612 ft | 16 kts | 45° |
| 2026-05-04 02:32 | 35.21945 | -101.70942 | 3612 ft | 22 kts | 47° |
| 2026-05-04 02:32 | 35.22069 | -101.70782 | 3612 ft | 29 kts | 46° |
| 2026-05-04 02:32 | 35.22226 | -101.70585 | 3612 ft | 35 kts | 46° |
| 2026-05-04 02:33 | 35.22395 | -101.70373 | 3612 ft | 32 kts | 46° |
| 2026-05-04 02:33 | 35.22535 | -101.70195 | 3612 ft | 26 kts | 46° |
| 2026-05-04 02:33 | 35.22653 | -101.70047 | 3612 ft | 21 kts | 45° |
| 2026-05-04 02:33 | 35.22747 | -101.69930 | 3612 ft | 17 kts | 45° |
| 2026-05-04 02:34 | 35.22819 | -101.69840 | 3612 ft | 13 kts | 45° |
| 2026-05-04 02:34 | 35.22916 | -101.69843 | 3612 ft | 18 kts | 316° |
| 2026-05-04 02:34 | 35.23002 | -101.69943 | 3612 ft | 6 kts | 316° |
| 2026-05-04 02:34 | 35.23008 | -101.69951 | 3612 ft | 0 kts | 316° |
| 2026-05-04 02:35 | 35.23020 | -101.69965 | 3613 ft | 8 kts | 316° |
| 2026-05-04 02:35 | 35.23072 | -101.70036 | 3612 ft | 13 kts | 282° |
| 2026-05-04 02:35 | 35.22967 | -101.70172 | 3612 ft | 47 kts | 225° |
| 2026-05-04 02:35 | 35.22558 | -101.70688 | 3613 ft | 119 kts | 225° |
| 2026-05-04 02:36 | 35.21899 | -101.71521 | 3975 ft | 146 kts | 227° |
| 2026-05-04 02:36 | 35.21171 | -101.72469 | 4579 ft | 165 kts | 226° |
| 2026-05-04 02:36 | 35.20316 | -101.73529 | 5197 ft | 189 kts | 226° |
| 2026-05-04 02:36 | 35.19339 | -101.74734 | 5853 ft | 214 kts | 225° |
| 2026-05-04 02:37 | 35.17940 | -101.75597 | 6512 ft | 243 kts | 188° |
| 2026-05-04 02:37 | 35.16218 | -101.75153 | 7223 ft | 273 kts | 151° |
| 2026-05-04 02:37 | 35.14965 | -101.73426 | 8394 ft | 283 kts | 116° |
| 2026-05-04 02:37 | 35.14635 | -101.71101 | 9307 ft | 287 kts | 88° |
| 2026-05-04 02:38 | 35.14755 | -101.68624 | 10066 ft | 295 kts | 87° |
| 2026-05-04 02:38 | 35.14885 | -101.66108 | 10857 ft | 300 kts | 86° |
| 2026-05-04 02:38 | 35.15015 | -101.63565 | 11641 ft | 304 kts | 86° |
| 2026-05-04 02:38 | 35.15148 | -101.60987 | 12401 ft | 308 kts | 86° |
| 2026-05-04 02:39 | 35.15265 | -101.58368 | 13127 ft | 313 kts | 91° |
| 2026-05-04 02:39 | 35.14952 | -101.55705 | 13836 ft | 316 kts | 106° |
| 2026-05-04 02:39 | 35.14268 | -101.53159 | 14525 ft | 319 kts | 112° |
| 2026-05-04 02:39 | 35.13406 | -101.50636 | 15202 ft | 323 kts | 116° |
| 2026-05-04 02:40 | 35.12471 | -101.48154 | 15854 ft | 327 kts | 117° |
| 2026-05-04 02:40 | 35.11475 | -101.45624 | 16503 ft | 331 kts | 118° |
| 2026-05-04 02:40 | 35.10455 | -101.43082 | 17125 ft | 335 kts | 118° |
| 2026-05-04 02:40 | 35.09417 | -101.40521 | 17731 ft | 339 kts | 118° |
| 2026-05-04 02:41 | 35.08364 | -101.37933 | 18323 ft | 343 kts | 118° |
| 2026-05-04 02:41 | 35.07293 | -101.35307 | 18906 ft | 347 kts | 118° |
| 2026-05-04 02:41 | 35.06210 | -101.32657 | 19471 ft | 351 kts | 119° |
| 2026-05-04 02:41 | 35.05115 | -101.29979 | 20007 ft | 355 kts | 119° |
| 2026-05-04 02:42 | 35.04007 | -101.27274 | 20535 ft | 358 kts | 119° |
| 2026-05-04 02:42 | 35.02883 | -101.24528 | 21038 ft | 362 kts | 119° |
| 2026-05-04 02:42 | 35.01763 | -101.21796 | 21512 ft | 366 kts | 119° |
| 2026-05-04 02:42 | 35.00610 | -101.18986 | 21986 ft | 370 kts | 120° |
| 2026-05-04 02:43 | 34.99449 | -101.16159 | 22449 ft | 374 kts | 120° |
| 2026-05-04 02:43 | 34.98284 | -101.13326 | 22893 ft | 378 kts | 120° |
| 2026-05-04 02:43 | 34.97101 | -101.10449 | 23333 ft | 382 kts | 120° |
| 2026-05-04 02:43 | 34.95889 | -101.07506 | 23760 ft | 386 kts | 120° |
| 2026-05-04 02:44 | 34.94689 | -101.04594 | 24168 ft | 390 kts | 120° |
| 2026-05-04 02:44 | 34.93456 | -101.01607 | 24571 ft | 394 kts | 120° |
| 2026-05-04 02:44 | 34.92219 | -100.98610 | 24960 ft | 398 kts | 120° |
| 2026-05-04 02:44 | 34.90962 | -100.95569 | 25337 ft | 402 kts | 120° |
| 2026-05-04 02:45 | 34.89693 | -100.92503 | 25700 ft | 407 kts | 120° |
| 2026-05-04 02:45 | 34.88411 | -100.89409 | 26050 ft | 411 kts | 120° |
| 2026-05-04 02:45 | 34.87197 | -100.86481 | 26382 ft | 415 kts | 120° |
| 2026-05-04 02:45 | 34.85835 | -100.83199 | 26769 ft | 418 kts | 119° |
| 2026-05-04 02:46 | 34.84895 | -100.80937 | 27029 ft | 420 kts | 119° |
| 2026-05-04 02:46 | 34.84613 | -100.80258 | 27105 ft | 421 kts | 119° |
| 2026-05-04 02:46 | 34.84428 | -100.79811 | 27155 ft | 421 kts | 119° |
| 2026-05-04 02:47 | 34.83092 | -100.76595 | 27507 ft | 424 kts | 119° |
| 2026-05-04 02:47 | 34.81759 | -100.73389 | 27854 ft | 427 kts | 119° |
| 2026-05-04 02:47 | 34.80405 | -100.70138 | 28196 ft | 430 kts | 119° |
| 2026-05-04 02:47 | 34.79050 | -100.66885 | 28533 ft | 433 kts | 119° |
| 2026-05-04 02:48 | 34.77683 | -100.63610 | 28864 ft | 436 kts | 118° |
| 2026-05-04 02:48 | 34.76304 | -100.60307 | 28974 ft | 445 kts | 118° |
| 2026-05-04 02:48 | 34.74893 | -100.56933 | 28985 ft | 457 kts | 118° |
| 2026-05-04 02:48 | 34.73488 | -100.53574 | 28986 ft | 468 kts | 118° |
| 2026-05-04 02:49 | 34.71968 | -100.49945 | 28986 ft | 479 kts | 118° |
| 2026-05-04 02:49 | 34.70429 | -100.46275 | 28986 ft | 489 kts | 118° |
| 2026-05-04 02:49 | 34.67261 | -100.38731 | 28986 ft | 508 kts | 118° |
| 2026-05-04 02:50 | 34.64003 | -100.30991 | 28972 ft | 524 kts | 119° |
| 2026-05-04 02:50 | 34.60643 | -100.23028 | 28972 ft | 536 kts | 119° |
| 2026-05-04 02:51 | 34.57196 | -100.14879 | 28972 ft | 547 kts | 119° |
| 2026-05-04 02:51 | 34.53674 | -100.06570 | 28973 ft | 557 kts | 119° |
| 2026-05-04 02:52 | 34.50147 | -99.98270 | 28970 ft | 551 kts | 119° |
| 2026-05-04 02:52 | 34.46637 | -99.90032 | 28973 ft | 549 kts | 119° |
| 2026-05-04 02:53 | 34.43141 | -99.81845 | 28975 ft | 550 kts | 119° |
| 2026-05-04 02:53 | 34.39604 | -99.73583 | 28973 ft | 550 kts | 119° |
| 2026-05-04 02:54 | 34.36085 | -99.65382 | 28971 ft | 550 kts | 119° |
| 2026-05-04 02:54 | 34.32538 | -99.57219 | 28967 ft | 549 kts | 121° |
| 2026-05-04 02:55 | 34.26872 | -99.45258 | 28965 ft | 549 kts | 122° |
| 2026-05-04 02:56 | 34.23038 | -99.37203 | 28965 ft | 548 kts | 122° |
| 2026-05-04 02:56 | 34.19215 | -99.29193 | 28951 ft | 548 kts | 122° |
| 2026-05-04 02:57 | 34.15435 | -99.21291 | 28952 ft | 548 kts | 122° |
| 2026-05-04 02:57 | 34.11601 | -99.13296 | 28954 ft | 549 kts | 122° |
| 2026-05-04 02:58 | 34.07797 | -99.05379 | 28955 ft | 546 kts | 122° |
| 2026-05-04 02:58 | 34.03986 | -98.97465 | 28743 ft | 540 kts | 122° |
| 2026-05-04 02:58 | 34.02104 | -98.93562 | 28478 ft | 526 kts | 122° |
| 2026-05-04 02:59 | 34.00343 | -98.89911 | 28214 ft | 502 kts | 122° |
| 2026-05-04 02:59 | 33.98582 | -98.86269 | 27963 ft | 492 kts | 122° |
| 2026-05-04 02:59 | 33.96864 | -98.82719 | 27724 ft | 490 kts | 122° |
| 2026-05-04 02:59 | 33.95164 | -98.79209 | 27482 ft | 487 kts | 122° |
| 2026-05-04 03:00 | 33.93450 | -98.75674 | 27237 ft | 485 kts | 122° |
| 2026-05-04 03:00 | 33.91750 | -98.72171 | 26994 ft | 483 kts | 122° |
| 2026-05-04 03:00 | 33.90066 | -98.68706 | 26753 ft | 481 kts | 122° |
| 2026-05-04 03:00 | 33.88361 | -98.65225 | 26504 ft | 479 kts | 122° |
| 2026-05-04 03:01 | 33.86679 | -98.61807 | 26260 ft | 476 kts | 122° |
| 2026-05-04 03:01 | 33.84976 | -98.58350 | 26011 ft | 474 kts | 122° |
| 2026-05-04 03:01 | 33.83289 | -98.54929 | 25766 ft | 472 kts | 122° |
| 2026-05-04 03:01 | 33.81643 | -98.51565 | 25524 ft | 470 kts | 122° |
| 2026-05-04 03:02 | 33.79986 | -98.48167 | 25274 ft | 469 kts | 122° |
| 2026-05-04 03:02 | 33.78331 | -98.44777 | 24790 ft | 469 kts | 122° |
| 2026-05-04 03:02 | 33.76689 | -98.41415 | 24304 ft | 470 kts | 122° |
| 2026-05-04 03:02 | 33.75033 | -98.38029 | 23797 ft | 462 kts | 122° |
| 2026-05-04 03:03 | 33.73427 | -98.34744 | 23293 ft | 451 kts | 123° |
| 2026-05-04 03:03 | 33.71854 | -98.31532 | 22694 ft | 447 kts | 123° |
| 2026-05-04 03:03 | 33.70287 | -98.28336 | 21933 ft | 442 kts | 123° |
| 2026-05-04 03:03 | 33.68740 | -98.25183 | 21176 ft | 436 kts | 123° |
| 2026-05-04 03:04 | 33.67237 | -98.22124 | 20431 ft | 429 kts | 123° |
| 2026-05-04 03:04 | 33.65704 | -98.19005 | 19660 ft | 423 kts | 123° |
| 2026-05-04 03:04 | 33.64228 | -98.16006 | 18909 ft | 417 kts | 123° |
| 2026-05-04 03:04 | 33.62758 | -98.13039 | 18222 ft | 411 kts | 123° |
| 2026-05-04 03:05 | 33.61322 | -98.10149 | 17751 ft | 411 kts | 123° |
| 2026-05-04 03:05 | 33.59849 | -98.07184 | 17246 ft | 411 kts | 123° |
| 2026-05-04 03:05 | 33.58381 | -98.04231 | 16730 ft | 403 kts | 123° |
| 2026-05-04 03:05 | 33.56974 | -98.01403 | 16217 ft | 387 kts | 123° |
| 2026-05-04 03:06 | 33.55622 | -97.98688 | 15708 ft | 373 kts | 123° |
| 2026-05-04 03:06 | 33.54333 | -97.96101 | 15210 ft | 365 kts | 123° |
| 2026-05-04 03:06 | 33.53016 | -97.93462 | 14700 ft | 361 kts | 123° |
| 2026-05-04 03:06 | 33.51741 | -97.90910 | 14203 ft | 358 kts | 123° |
| 2026-05-04 03:07 | 33.50464 | -97.88346 | 13707 ft | 355 kts | 123° |
| 2026-05-04 03:07 | 33.49193 | -97.85794 | 13342 ft | 355 kts | 123° |
| 2026-05-04 03:07 | 33.47942 | -97.83283 | 12972 ft | 352 kts | 123° |
| 2026-05-04 03:07 | 33.46685 | -97.80763 | 12597 ft | 350 kts | 123° |
| 2026-05-04 03:08 | 33.45441 | -97.78271 | 12222 ft | 347 kts | 123° |
| 2026-05-04 03:08 | 33.44212 | -97.75808 | 11844 ft | 341 kts | 123° |
| 2026-05-04 03:08 | 33.43031 | -97.73440 | 11457 ft | 325 kts | 123° |
| 2026-05-04 03:08 | 33.41890 | -97.71153 | 11073 ft | 315 kts | 124° |
| 2026-05-04 03:09 | 33.40766 | -97.68908 | 10694 ft | 311 kts | 124° |
| 2026-05-04 03:09 | 33.39658 | -97.66695 | 10484 ft | 309 kts | 124° |
| 2026-05-04 03:09 | 33.38551 | -97.64503 | 10391 ft | 308 kts | 126° |
| 2026-05-04 03:09 | 33.37325 | -97.62392 | 10119 ft | 307 kts | 130° |
| 2026-05-04 03:10 | 33.36059 | -97.60343 | 9746 ft | 305 kts | 130° |
| 2026-05-04 03:10 | 33.34802 | -97.58308 | 9373 ft | 303 kts | 130° |
| 2026-05-04 03:10 | 33.33581 | -97.56329 | 9006 ft | 300 kts | 130° |
| 2026-05-04 03:10 | 33.32336 | -97.54310 | 8624 ft | 295 kts | 130° |
| 2026-05-04 03:11 | 33.31134 | -97.52361 | 8252 ft | 291 kts | 130° |
| 2026-05-04 03:11 | 33.29937 | -97.50422 | 7878 ft | 288 kts | 130° |
| 2026-05-04 03:11 | 33.28760 | -97.48515 | 7505 ft | 285 kts | 130° |
| 2026-05-04 03:11 | 33.27574 | -97.46603 | 7127 ft | 282 kts | 132° |
| 2026-05-04 03:12 | 33.26186 | -97.44974 | 6752 ft | 275 kts | 142° |
| 2026-05-04 03:12 | 33.24882 | -97.43587 | 6406 ft | 271 kts | 142° |
| 2026-05-04 03:12 | 33.23466 | -97.42085 | 6023 ft | 265 kts | 142° |
| 2026-05-04 03:12 | 33.22100 | -97.40643 | 5645 ft | 260 kts | 142° |
| 2026-05-04 03:13 | 33.20780 | -97.39253 | 5275 ft | 256 kts | 142° |
| 2026-05-04 03:13 | 33.19431 | -97.37835 | 5019 ft | 253 kts | 141° |
| 2026-05-04 03:13 | 33.18118 | -97.36455 | 5007 ft | 253 kts | 142° |
| 2026-05-04 03:13 | 33.16767 | -97.35039 | 5005 ft | 254 kts | 141° |
| 2026-05-04 03:14 | 33.15441 | -97.33649 | 5003 ft | 254 kts | 142° |
| 2026-05-04 03:14 | 33.14103 | -97.32248 | 4896 ft | 256 kts | 142° |
| 2026-05-04 03:14 | 33.12777 | -97.30860 | 4511 ft | 253 kts | 142° |
| 2026-05-04 03:14 | 33.11447 | -97.29469 | 4128 ft | 251 kts | 142° |
| 2026-05-04 03:15 | 33.10143 | -97.28119 | 3751 ft | 249 kts | 142° |
| 2026-05-04 03:15 | 33.08833 | -97.26763 | 3370 ft | 247 kts | 141° |
| 2026-05-04 03:15 | 33.07539 | -97.25424 | 3117 ft | 245 kts | 141° |
| 2026-05-04 03:15 | 33.06296 | -97.24157 | 3095 ft | 227 kts | 142° |
| 2026-05-04 03:16 | 33.05147 | -97.23000 | 3088 ft | 210 kts | 142° |
| 2026-05-04 03:16 | 33.04040 | -97.21862 | 2900 ft | 207 kts | 141° |
| 2026-05-04 03:16 | 33.02963 | -97.20740 | 2522 ft | 208 kts | 141° |
| 2026-05-04 03:16 | 33.01875 | -97.19597 | 2308 ft | 203 kts | 141° |
| 2026-05-04 03:17 | 33.00837 | -97.18500 | 2301 ft | 201 kts | 140° |
| 2026-05-04 03:17 | 32.99770 | -97.17394 | 2301 ft | 201 kts | 141° |
| 2026-05-04 03:17 | 32.98716 | -97.16296 | 2300 ft | 202 kts | 141° |
| 2026-05-04 03:17 | 32.97648 | -97.15190 | 2299 ft | 201 kts | 143° |
| 2026-05-04 03:18 | 32.96545 | -97.14170 | 2299 ft | 202 kts | 143° |
| 2026-05-04 03:18 | 32.95467 | -97.13094 | 2175 ft | 199 kts | 138° |
| 2026-05-04 03:18 | 32.94506 | -97.11948 | 1703 ft | 194 kts | 137° |
| 2026-05-04 03:18 | 32.93533 | -97.10939 | 1394 ft | 176 kts | 144° |
| 2026-05-04 03:19 | 32.92629 | -97.10060 | 1082 ft | 165 kts | 140° |
| 2026-05-04 03:19 | 32.91843 | -97.09215 | 884 ft | 143 kts | 141° |
| 2026-05-04 03:19 | 32.91084 | -97.08443 | 690 ft | 141 kts | 142° |
| 2026-05-04 03:19 | 32.90369 | -97.07714 | 591 ft | 127 kts | 141° |
| 2026-05-04 03:20 | 32.89779 | -97.07095 | 573 ft | 93 kts | 138° |
| 2026-05-04 03:20 | 32.89525 | -97.06835 | 574 ft | 8 kts | 140° |
| 2026-05-04 03:20 | 32.89552 | -97.06869 | 574 ft | 16 kts | 112° |
| 2026-05-04 03:20 | 32.89558 | -97.06883 | 573 ft | 14 kts | 56° |
| 2026-05-04 03:21 | 32.89574 | -97.06761 | 578 ft | 18 kts | 110° |
| 2026-05-04 03:21 | 32.89520 | -97.06594 | 581 ft | 24 kts | 121° |
| 2026-05-04 03:21 | 32.89418 | -97.06470 | 579 ft | 18 kts | 139° |
| 2026-05-04 03:21 | 32.89336 | -97.06388 | 577 ft | 12 kts | 141° |
| 2026-05-04 03:22 | 32.89271 | -97.06323 | 576 ft | 15 kts | 139° |
| 2026-05-04 03:22 | 32.89175 | -97.06216 | 577 ft | 22 kts | 138° |
| 2026-05-04 03:22 | 32.89032 | -97.06072 | 577 ft | 30 kts | 141° |
| 2026-05-04 03:22 | 32.88877 | -97.05914 | 578 ft | 25 kts | 138° |
| 2026-05-04 03:23 | 32.88757 | -97.05791 | 580 ft | 24 kts | 139° |
| 2026-05-04 03:23 | 32.88627 | -97.05621 | 580 ft | 31 kts | 116° |
| 2026-05-04 03:23 | 32.88530 | -97.05367 | 578 ft | 32 kts | 107° |
| 2026-05-04 03:23 | 32.88506 | -97.05118 | 574 ft | 28 kts | 92° |
| 2026-05-04 03:24 | 32.88528 | -97.04908 | 575 ft | 22 kts | 27° |
| 2026-05-04 03:24 | 32.88653 | -97.04900 | 577 ft | 18 kts | 5° |
| 2026-05-04 03:24 | 32.88803 | -97.04891 | 580 ft | 25 kts | 1° |
| 2026-05-04 03:24 | 32.89000 | -97.04894 | 584 ft | 31 kts | 359° |
| 2026-05-04 03:25 | 32.89241 | -97.04891 | 590 ft | 36 kts | 1° |
| 2026-05-04 03:25 | 32.89509 | -97.04889 | 597 ft | 37 kts | 360° |
| 2026-05-04 03:25 | 32.89745 | -97.04888 | 603 ft | 32 kts | 0° |
| 2026-05-04 03:25 | 32.89959 | -97.04887 | 607 ft | 29 kts | 0° |
| 2026-05-04 03:26 | 32.90161 | -97.04887 | 608 ft | 29 kts | 359° |
| 2026-05-04 03:26 | 32.90383 | -97.04886 | 607 ft | 36 kts | 0° |
| 2026-05-04 03:26 | 32.90643 | -97.04884 | 602 ft | 36 kts | 360° |
| 2026-05-04 03:26 | 32.90878 | -97.04884 | 597 ft | 31 kts | 1° |
| 2026-05-04 03:27 | 32.91008 | -97.04855 | 594 ft | 14 kts | 65° |
| 2026-05-04 03:27 | 32.91011 | -97.04720 | 591 ft | 21 kts | 90° |
| 2026-05-04 03:27 | 32.91011 | -97.04506 | 590 ft | 29 kts | 90° |
| 2026-05-04 03:27 | 32.91011 | -97.04271 | 589 ft | 28 kts | 90° |
| 2026-05-04 03:28 | 32.91009 | -97.04038 | 587 ft | 28 kts | 90° |
| 2026-05-04 03:28 | 32.91008 | -97.03807 | 587 ft | 27 kts | 90° |
| 2026-05-04 03:28 | 32.91008 | -97.03584 | 585 ft | 26 kts | 91° |
| 2026-05-04 03:28 | 32.91035 | -97.03494 | 583 ft | 9 kts | 360° |
| 2026-05-04 03:29 | 32.91114 | -97.03555 | 582 ft | 20 kts | 268° |
| 2026-05-04 03:29 | 32.91176 | -97.03661 | 580 ft | 17 kts | 1° |
| 2026-05-04 03:29 | 32.91278 | -97.03657 | 578 ft | 11 kts | 36° |
| 2026-05-04 03:29 | 32.91263 | -97.03609 | 579 ft | 0 kts | 137° |